sensor_id;sensor_type;location;lat;lon;timestamp;pressure;altitude;pressure_sealevel;temperature;humidity
59787;BME280;45672;51.612;5.536;2023-05-07T00:00:12;101426.94;;;15.10;100.00
59787;BME280;45672;51.612;5.536;2023-05-07T00:02:40;101426.59;;;15.13;100.00
59787;BME280;45672;51.612;5.536;2023-05-07T00:05:06;101434.81;;;15.12;100.00
59787;BME280;45672;51.612;5.536;2023-05-07T00:07:32;101425.94;;;15.11;100.00
59787;BME280;45672;51.612;5.536;2023-05-07T00:09:57;101423.56;;;15.16;100.00
59787;BME280;45672;51.612;5.536;2023-05-07T00:12:23;101421.94;;;15.15;100.00
59787;BME280;45672;51.612;5.536;2023-05-07T00:14:48;101417.38;;;15.16;100.00
59787;BME280;45672;51.612;5.536;2023-05-07T00:17:13;101421.56;;;15.19;100.00
59787;BME280;45672;51.612;5.536;2023-05-07T00:19:38;101423.25;;;15.20;100.00
59787;BME280;45672;51.612;5.536;2023-05-07T00:22:04;101419.72;;;15.19;100.00
59787;BME280;45672;51.612;5.536;2023-05-07T00:24:29;101417.38;;;15.16;100.00
59787;BME280;45672;51.612;5.536;2023-05-07T00:26:54;101414.88;;;15.14;100.00
59787;BME280;45672;51.612;5.536;2023-05-07T00:29:20;101409.69;;;15.13;100.00
59787;BME280;45672;51.612;5.536;2023-05-07T00:31:45;101409.69;;;15.13;100.00
59787;BME280;45672;51.612;5.536;2023-05-07T00:34:10;101409.53;;;15.14;100.00
59787;BME280;45672;51.612;5.536;2023-05-07T00:36:36;101406.19;;;15.12;100.00
59787;BME280;45672;51.612;5.536;2023-05-07T00:39:01;101409.88;;;15.11;100.00
59787;BME280;45672;51.612;5.536;2023-05-07T00:41:28;101405.34;;;15.12;100.00
59787;BME280;45672;51.612;5.536;2023-05-07T00:43:54;101399.97;;;15.12;100.00
59787;BME280;45672;51.612;5.536;2023-05-07T00:46:20;101404.16;;;15.06;100.00
59787;BME280;45672;51.612;5.536;2023-05-07T00:48:46;101397.31;;;15.04;100.00
59787;BME280;45672;51.612;5.536;2023-05-07T00:51:11;101400.66;;;15.06;100.00
59787;BME280;45672;51.612;5.536;2023-05-07T00:53:37;101390.28;;;15.03;100.00
59787;BME280;45672;51.612;5.536;2023-05-07T00:56:03;101398.63;;;15.08;100.00
59787;BME280;45672;51.612;5.536;2023-05-07T00:58:29;101398.63;;;15.08;100.00
59787;BME280;45672;51.612;5.536;2023-05-07T01:00:55;101397.00;;;15.07;100.00
59787;BME280;45672;51.612;5.536;2023-05-07T01:03:20;101391.94;;;15.04;100.00
59787;BME280;45672;51.612;5.536;2023-05-07T01:05:47;101388.28;;;15.05;100.00
59787;BME280;45672;51.612;5.536;2023-05-07T01:08:13;101396.47;;;15.03;100.00
59787;BME280;45672;51.612;5.536;2023-05-07T01:10:40;101390.28;;;15.03;100.00
59787;BME280;45672;51.612;5.536;2023-05-07T01:13:09;101392.63;;;15.06;100.00
59787;BME280;45672;51.612;5.536;2023-05-07T01:15:35;101387.28;;;15.06;100.00
59787;BME280;45672;51.612;5.536;2023-05-07T01:18:01;101388.28;;;15.05;100.00
59787;BME280;45672;51.612;5.536;2023-05-07T01:20:27;101387.91;;;15.08;100.00
59787;BME280;45672;51.612;5.536;2023-05-07T01:22:53;101389.94;;;15.06;100.00
59787;BME280;45672;51.612;5.536;2023-05-07T01:25:18;101388.78;;;15.08;100.00
59787;BME280;45672;51.612;5.536;2023-05-07T01:27:44;101385.25;;;15.08;100.00
59787;BME280;45672;51.612;5.536;2023-05-07T01:30:10;101386.28;;;15.07;100.00
59787;BME280;45672;51.612;5.536;2023-05-07T01:32:41;101375.38;;;15.08;100.00
59787;BME280;45672;51.612;5.536;2023-05-07T01:35:11;101370.50;;;15.04;100.00
59787;BME280;45672;51.612;5.536;2023-05-07T01:37:37;101372.88;;;15.07;100.00
59787;BME280;45672;51.612;5.536;2023-05-07T01:40:04;101376.38;;;15.07;100.00
59787;BME280;45672;51.612;5.536;2023-05-07T01:42:29;101370.19;;;15.07;100.00
59787;BME280;45672;51.612;5.536;2023-05-07T01:44:55;101368.19;;;15.00;100.00
59787;BME280;45672;51.612;5.536;2023-05-07T01:47:21;101361.84;;;14.93;100.00
59787;BME280;45672;51.612;5.536;2023-05-07T01:49:47;101366.19;;;14.86;100.00
59787;BME280;45672;51.612;5.536;2023-05-07T01:52:12;101357.81;;;14.81;100.00
59787;BME280;45672;51.612;5.536;2023-05-07T01:54:38;101356.19;;;14.80;100.00
59787;BME280;45672;51.612;5.536;2023-05-07T01:57:03;101356.34;;;14.78;100.00
59787;BME280;45672;51.612;5.536;2023-05-07T01:59:29;101363.19;;;14.81;100.00
59787;BME280;45672;51.612;5.536;2023-05-07T02:01:54;101367.53;;;14.82;100.00
59787;BME280;45672;51.612;5.536;2023-05-07T02:04:19;101364.88;;;14.82;100.00
59787;BME280;45672;51.612;5.536;2023-05-07T02:06:45;101352.97;;;14.85;100.00
59787;BME280;45672;51.612;5.536;2023-05-07T02:09:11;101363.53;;;14.86;100.00
59787;BME280;45672;51.612;5.536;2023-05-07T02:11:36;101363.03;;;14.82;100.00
59787;BME280;45672;51.612;5.536;2023-05-07T02:14:01;101361.84;;;14.85;100.00
59787;BME280;45672;51.612;5.536;2023-05-07T02:16:27;101356.84;;;14.82;100.00
59787;BME280;45672;51.612;5.536;2023-05-07T02:18:52;101354.66;;;14.77;100.00
59787;BME280;45672;51.612;5.536;2023-05-07T02:21:17;101354.84;;;14.76;100.00
59787;BME280;45672;51.612;5.536;2023-05-07T02:23:43;101356.34;;;14.78;100.00
59787;BME280;45672;51.612;5.536;2023-05-07T02:26:08;101356.34;;;14.78;100.00
59787;BME280;45672;51.612;5.536;2023-05-07T02:28:33;101351.00;;;14.78;100.00
59787;BME280;45672;51.612;5.536;2023-05-07T02:31:02;101357.88;;;14.73;100.00
59787;BME280;45672;51.612;5.536;2023-05-07T02:33:28;101359.69;;;14.72;100.00
59787;BME280;45672;51.612;5.536;2023-05-07T02:35:53;101360.38;;;14.74;100.00
59787;BME280;45672;51.612;5.536;2023-05-07T02:38:18;101361.88;;;14.77;100.00
59787;BME280;45672;51.612;5.536;2023-05-07T02:40:43;101360.84;;;14.78;100.00
59787;BME280;45672;51.612;5.536;2023-05-07T02:43:09;101362.38;;;14.80;100.00
59787;BME280;45672;51.612;5.536;2023-05-07T02:45:34;101361.38;;;14.81;100.00
59787;BME280;45672;51.612;5.536;2023-05-07T02:48:01;101364.22;;;14.80;100.00
59787;BME280;45672;51.612;5.536;2023-05-07T02:50:26;101365.03;;;14.80;100.00
59787;BME280;45672;51.612;5.536;2023-05-07T02:52:52;101363.88;;;14.83;100.00
59787;BME280;45672;51.612;5.536;2023-05-07T02:55:17;101363.88;;;14.83;100.00
59787;BME280;45672;51.612;5.536;2023-05-07T02:57:42;101366.19;;;14.86;100.00
59787;BME280;45672;51.612;5.536;2023-05-07T03:00:16;101361.84;;;14.85;100.00
59787;BME280;45672;51.612;5.536;2023-05-07T03:02:43;101367.53;;;14.82;100.00
59787;BME280;45672;51.612;5.536;2023-05-07T03:05:08;101367.72;;;14.80;100.00
59787;BME280;45672;51.612;5.536;2023-05-07T03:07:35;101364.22;;;14.80;100.00
59787;BME280;45672;51.612;5.536;2023-05-07T03:10:00;101368.53;;;14.81;100.00
59787;BME280;45672;51.612;5.536;2023-05-07T03:12:25;101369.56;;;14.80;100.00
59787;BME280;45672;51.612;5.536;2023-05-07T03:14:51;101365.22;;;14.79;100.00
59787;BME280;45672;51.612;5.536;2023-05-07T03:17:16;101362.53;;;14.79;100.00
59787;BME280;45672;51.612;5.536;2023-05-07T03:19:41;101362.38;;;14.80;100.00
59787;BME280;45672;51.612;5.536;2023-05-07T03:22:07;101365.38;;;14.77;100.00
59787;BME280;45672;51.612;5.536;2023-05-07T03:24:32;101357.88;;;14.73;100.00
59787;BME280;45672;51.612;5.536;2023-05-07T03:26:57;101364.72;;;14.75;100.00
59787;BME280;45672;51.612;5.536;2023-05-07T03:29:23;101362.06;;;14.75;100.00
59787;BME280;45672;51.612;5.536;2023-05-07T03:31:48;101356.00;;;14.73;100.00
59787;BME280;45672;51.612;5.536;2023-05-07T03:34:14;101348.81;;;14.74;100.00
59787;BME280;45672;51.612;5.536;2023-05-07T03:36:39;101349.66;;;14.74;100.00
59787;BME280;45672;51.612;5.536;2023-05-07T03:39:04;101358.53;;;14.75;100.00
59787;BME280;45672;51.612;5.536;2023-05-07T03:41:30;101347.16;;;14.73;100.00
59787;BME280;45672;51.612;5.536;2023-05-07T03:43:55;101354.16;;;14.74;100.00
59787;BME280;45672;51.612;5.536;2023-05-07T03:46:20;101357.53;;;14.76;100.00
59787;BME280;45672;51.612;5.536;2023-05-07T03:48:46;101352.50;;;14.73;100.00
59787;BME280;45672;51.612;5.536;2023-05-07T03:51:11;101345.47;;;14.72;100.00
59787;BME280;45672;51.612;5.536;2023-05-07T03:53:36;101345.81;;;14.69;100.00
59787;BME280;45672;51.612;5.536;2023-05-07T03:56:01;101347.34;;;14.63;100.00
59787;BME280;45672;51.612;5.536;2023-05-07T03:58:27;101353.50;;;14.63;100.00
59787;BME280;45672;51.612;5.536;2023-05-07T04:00:52;101360.22;;;14.68;100.00
59787;BME280;45672;51.612;5.536;2023-05-07T04:03:18;101358.34;;;14.68;100.00
59787;BME280;45672;51.612;5.536;2023-05-07T04:05:43;101369.06;;;14.68;100.00
59787;BME280;45672;51.612;5.536;2023-05-07T04:08:08;101371.44;;;14.63;100.00
59787;BME280;45672;51.612;5.536;2023-05-07T04:10:34;101376.28;;;14.68;100.00
59787;BME280;45672;51.612;5.536;2023-05-07T04:12:59;101377.28;;;14.67;100.00
59787;BME280;45672;51.612;5.536;2023-05-07T04:15:24;101369.75;;;14.62;100.00
59787;BME280;45672;51.612;5.536;2023-05-07T04:17:50;101385.13;;;14.60;100.00
59787;BME280;45672;51.612;5.536;2023-05-07T04:20:16;101390.31;;;14.53;100.00
59787;BME280;45672;51.612;5.536;2023-05-07T04:22:42;101385.31;;;14.50;100.00
59787;BME280;45672;51.612;5.536;2023-05-07T04:25:08;101383.63;;;14.49;100.00
59787;BME280;45672;51.612;5.536;2023-05-07T04:27:36;101386.13;;;14.51;100.00
59787;BME280;45672;51.612;5.536;2023-05-07T04:30:03;101384.97;;;14.53;100.00
59787;BME280;45672;51.612;5.536;2023-05-07T04:32:29;101383.78;;;14.56;100.00
59787;BME280;45672;51.612;5.536;2023-05-07T04:34:55;101378.28;;;14.57;100.00
59787;BME280;45672;51.612;5.536;2023-05-07T04:37:21;101376.94;;;14.61;100.00
59787;BME280;45672;51.612;5.536;2023-05-07T04:39:47;101370.09;;;14.67;100.00
59787;BME280;45672;51.612;5.536;2023-05-07T04:42:15;101373.59;;;14.68;100.00
59787;BME280;45672;51.612;5.536;2023-05-07T04:44:41;101381.47;;;14.69;100.00
59787;BME280;45672;51.612;5.536;2023-05-07T04:47:06;101381.13;;;14.72;100.00
59787;BME280;45672;51.612;5.536;2023-05-07T04:49:31;101387.34;;;14.73;100.00
59787;BME280;45672;51.612;5.536;2023-05-07T04:51:57;101389.66;;;14.76;100.00
59787;BME280;45672;51.612;5.536;2023-05-07T04:54:22;101387.63;;;14.78;100.00
59787;BME280;45672;51.612;5.536;2023-05-07T04:56:47;101392.66;;;14.81;100.00
59787;BME280;45672;51.612;5.536;2023-05-07T04:59:12;101383.63;;;14.82;100.00
59787;BME280;45672;51.612;5.536;2023-05-07T05:01:38;101386.97;;;14.84;100.00
59787;BME280;45672;51.612;5.536;2023-05-07T05:04:03;101386.97;;;14.84;100.00
59787;BME280;45672;51.612;5.536;2023-05-07T05:06:29;101386.97;;;14.84;100.00
59787;BME280;45672;51.612;5.536;2023-05-07T05:08:54;101386.13;;;14.83;100.00
59787;BME280;45672;51.612;5.536;2023-05-07T05:11:19;101390.84;;;14.81;100.00
59787;BME280;45672;51.612;5.536;2023-05-07T05:13:45;101398.88;;;14.81;100.00
59787;BME280;45672;51.612;5.536;2023-05-07T05:16:13;101400.03;;;14.79;100.00
59787;BME280;45672;51.612;5.536;2023-05-07T05:18:38;101400.22;;;14.77;100.00
59787;BME280;45672;51.612;5.536;2023-05-07T05:21:03;101401.22;;;14.76;100.00
59787;BME280;45672;51.612;5.536;2023-05-07T05:23:29;101401.72;;;14.72;100.00
59787;BME280;45672;51.612;5.536;2023-05-07T05:25:57;101397.69;;;14.68;100.00
59787;BME280;45672;51.612;5.536;2023-05-07T05:28:23;101408.75;;;14.64;100.00
59787;BME280;45672;51.612;5.536;2023-05-07T05:30:49;101406.75;;;14.67;100.00
59787;BME280;45672;51.612;5.536;2023-05-07T05:33:14;101416.63;;;14.74;100.00
59787;BME280;45672;51.612;5.536;2023-05-07T05:35:40;101417.78;;;14.80;100.00
59787;BME280;45672;51.612;5.536;2023-05-07T05:38:05;101421.13;;;14.90;100.00
59787;BME280;45672;51.612;5.536;2023-05-07T05:40:31;101425.31;;;15.01;100.00
59787;BME280;45672;51.612;5.536;2023-05-07T05:42:56;101429.47;;;15.04;100.00
59787;BME280;45672;51.612;5.536;2023-05-07T05:45:21;101422.81;;;14.99;100.00
59787;BME280;45672;51.612;5.536;2023-05-07T05:47:47;101423.78;;;15.07;100.00
59787;BME280;45672;51.612;5.536;2023-05-07T05:50:12;101426.78;;;15.04;100.00
59787;BME280;45672;51.612;5.536;2023-05-07T05:52:38;101425.31;;;15.01;100.00
59787;BME280;45672;51.612;5.536;2023-05-07T05:55:03;101416.09;;;14.95;100.00
59787;BME280;45672;51.612;5.536;2023-05-07T05:57:29;101426.97;;;15.02;100.00
59787;BME280;45672;51.612;5.536;2023-05-07T05:59:54;101420.09;;;15.08;100.00
59787;BME280;45672;51.612;5.536;2023-05-07T06:02:20;101428.13;;;15.08;100.00
59787;BME280;45672;51.612;5.536;2023-05-07T06:04:46;101420.44;;;15.05;100.00
59787;BME280;45672;51.612;5.536;2023-05-07T06:07:11;101422.47;;;15.03;100.00
59787;BME280;45672;51.612;5.536;2023-05-07T06:09:37;101419.44;;;15.06;100.00
59787;BME280;45672;51.612;5.536;2023-05-07T06:12:02;101427.47;;;15.06;100.00
59787;BME280;45672;51.612;5.536;2023-05-07T06:14:28;101424.97;;;15.04;100.00
59787;BME280;45672;51.612;5.536;2023-05-07T06:16:53;101430.13;;;15.14;100.00
59787;BME280;45672;51.612;5.536;2023-05-07T06:19:18;101437.66;;;15.19;100.00
59787;BME280;45672;51.612;5.536;2023-05-07T06:21:48;101435.44;;;15.30;100.00
59787;BME280;45672;51.612;5.536;2023-05-07T06:24:13;101429.72;;;15.42;100.00
59787;BME280;45672;51.612;5.536;2023-05-07T06:26:38;101439.91;;;15.55;100.00
59787;BME280;45672;51.612;5.536;2023-05-07T06:29:05;101435.31;;;15.63;100.00
59787;BME280;45672;51.612;5.536;2023-05-07T06:31:30;101435.47;;;15.70;100.00
59787;BME280;45672;51.612;5.536;2023-05-07T06:33:57;101431.25;;;15.76;100.00
59787;BME280;45672;51.612;5.536;2023-05-07T06:36:22;101438.31;;;15.85;100.00
59787;BME280;45672;51.612;5.536;2023-05-07T06:38:47;101436.22;;;15.95;100.00
59787;BME280;45672;51.612;5.536;2023-05-07T06:41:13;101437.03;;;16.04;100.00
59787;BME280;45672;51.612;5.536;2023-05-07T06:43:38;101441.19;;;16.07;100.00
59787;BME280;45672;51.612;5.536;2023-05-07T06:46:03;101439.88;;;16.02;100.00
59787;BME280;45672;51.612;5.536;2023-05-07T06:48:29;101432.16;;;16.08;100.00
59787;BME280;45672;51.612;5.536;2023-05-07T06:50:54;101433.16;;;16.07;100.00
59787;BME280;45672;51.612;5.536;2023-05-07T06:53:20;101440.72;;;16.03;100.00
59787;BME280;45672;51.612;5.536;2023-05-07T06:55:46;101440.53;;;16.05;100.00
59787;BME280;45672;51.612;5.536;2023-05-07T06:58:11;101439.84;;;16.11;100.00
59787;BME280;45672;51.612;5.536;2023-05-07T07:00:36;101446.16;;;16.18;100.00
59787;BME280;45672;51.612;5.536;2023-05-07T07:03:02;101447.78;;;16.27;100.00
59787;BME280;45672;51.612;5.536;2023-05-07T07:05:27;101444.56;;;16.32;100.00
59787;BME280;45672;51.612;5.536;2023-05-07T07:07:52;101455.31;;;16.32;100.00
59787;BME280;45672;51.612;5.536;2023-05-07T07:10:21;101450.97;;;16.31;100.00
59787;BME280;45672;51.612;5.536;2023-05-07T07:12:46;101446.31;;;16.25;100.00
59787;BME280;45672;51.612;5.536;2023-05-07T07:15:12;101454.69;;;16.22;100.00
59787;BME280;45672;51.612;5.536;2023-05-07T07:17:38;101458.44;;;16.12;100.00
59787;BME280;45672;51.612;5.536;2023-05-07T07:20:03;101455.94;;;16.11;100.00
59787;BME280;45672;51.612;5.536;2023-05-07T07:22:29;101456.78;;;16.11;100.00
59787;BME280;45672;51.612;5.536;2023-05-07T07:24:54;101459.41;;;16.19;100.00
59787;BME280;45672;51.612;5.536;2023-05-07T07:27:19;101451.53;;;16.18;100.00
59787;BME280;45672;51.612;5.536;2023-05-07T07:29:45;101448.34;;;16.14;100.00
59787;BME280;45672;51.612;5.536;2023-05-07T07:32:10;101456.38;;;16.23;100.00
59787;BME280;45672;51.612;5.536;2023-05-07T07:34:35;101450.28;;;16.29;100.00
59787;BME280;45672;51.612;5.536;2023-05-07T07:37:01;101458.19;;;16.30;100.00
59787;BME280;45672;51.612;5.536;2023-05-07T07:39:30;101463.38;;;16.32;100.00
59787;BME280;45672;51.612;5.536;2023-05-07T07:41:56;101466.72;;;16.34;100.00
59787;BME280;45672;51.612;5.536;2023-05-07T07:44:21;101466.38;;;16.29;100.00
59787;BME280;45672;51.612;5.536;2023-05-07T07:46:47;101464.84;;;16.34;100.00
59787;BME280;45672;51.612;5.536;2023-05-07T07:49:12;101467.84;;;16.40;100.00
59787;BME280;45672;51.612;5.536;2023-05-07T07:51:37;101470.47;;;16.48;100.00
59787;BME280;45672;51.612;5.536;2023-05-07T07:54:03;101470.44;;;16.56;100.00
59787;BME280;45672;51.612;5.536;2023-05-07T07:56:28;101467.75;;;16.56;100.00
59787;BME280;45672;51.612;5.536;2023-05-07T07:58:54;101480.75;;;16.67;100.00
59787;BME280;45672;51.612;5.536;2023-05-07T08:01:19;101471.91;;;16.82;100.00
59787;BME280;45672;51.612;5.536;2023-05-07T08:03:44;101481.22;;;16.94;100.00
59787;BME280;45672;51.612;5.536;2023-05-07T08:06:10;101479.31;;;17.18;100.00
59787;BME280;45672;51.612;5.536;2023-05-07T08:08:35;101479.72;;;17.45;100.00
59787;BME280;45672;51.612;5.536;2023-05-07T08:11:01;101479.34;;;17.78;100.00
59787;BME280;45672;51.612;5.536;2023-05-07T08:13:26;101480.66;;;17.97;100.00
59787;BME280;45672;51.612;5.536;2023-05-07T08:15:51;101477.78;;;17.98;100.00
59787;BME280;45672;51.612;5.536;2023-05-07T08:18:17;101479.97;;;18.09;100.00
59787;BME280;45672;51.612;5.536;2023-05-07T08:20:42;101481.81;;;18.24;99.34
59787;BME280;45672;51.612;5.536;2023-05-07T08:23:08;101486.72;;;18.42;97.90
59787;BME280;45672;51.612;5.536;2023-05-07T08:25:34;101485.88;;;18.56;97.87
59787;BME280;45672;51.612;5.536;2023-05-07T08:28:00;101496.69;;;19.06;95.42
59787;BME280;45672;51.612;5.536;2023-05-07T08:30:25;101492.91;;;19.64;93.55
59787;BME280;45672;51.612;5.536;2023-05-07T08:32:51;101497.00;;;20.43;87.50
59787;BME280;45672;51.612;5.536;2023-05-07T08:35:16;101495.41;;;20.82;84.44
59787;BME280;45672;51.612;5.536;2023-05-07T08:37:41;101495.59;;;21.08;81.85
59787;BME280;45672;51.612;5.536;2023-05-07T08:40:07;101502.06;;;21.27;83.58
59787;BME280;45672;51.612;5.536;2023-05-07T08:42:35;101500.44;;;20.92;81.32
59787;BME280;45672;51.612;5.536;2023-05-07T08:45:02;101497.91;;;21.11;80.25
59787;BME280;45672;51.612;5.536;2023-05-07T08:47:40;101496.16;;;21.70;81.53
59787;BME280;45672;51.612;5.536;2023-05-07T08:50:08;101498.03;;;22.60;76.66
59787;BME280;45672;51.612;5.536;2023-05-07T08:52:35;101501.50;;;23.24;72.88
59787;BME280;45672;51.612;5.536;2023-05-07T08:55:02;101510.03;;;24.21;66.43
59787;BME280;45672;51.612;5.536;2023-05-07T08:57:27;101508.16;;;24.33;65.75
59787;BME280;45672;51.612;5.536;2023-05-07T08:59:53;101509.13;;;24.39;65.27
59787;BME280;45672;51.612;5.536;2023-05-07T09:02:18;101505.16;;;24.11;64.31
59787;BME280;45672;51.612;5.536;2023-05-07T09:04:44;101514.06;;;23.44;68.83
59787;BME280;45672;51.612;5.536;2023-05-07T09:07:09;101520.75;;;22.91;68.33
59787;BME280;45672;51.612;5.536;2023-05-07T09:09:35;101520.94;;;22.26;72.16
59787;BME280;45672;51.612;5.536;2023-05-07T09:12:00;101515.22;;;22.02;72.72
59787;BME280;45672;51.612;5.536;2023-05-07T09:14:27;101503.69;;;21.55;73.93
59787;BME280;45672;51.612;5.536;2023-05-07T09:16:53;101508.28;;;21.41;76.42
59787;BME280;45672;51.612;5.536;2023-05-07T09:19:27;101503.28;;;21.38;77.98
59787;BME280;45672;51.612;5.536;2023-05-07T09:22:00;101498.75;;;21.05;78.67
59787;BME280;45672;51.612;5.536;2023-05-07T09:24:26;101506.66;;;20.93;77.64
59787;BME280;45672;51.612;5.536;2023-05-07T09:26:53;101502.91;;;20.80;78.46
59787;BME280;45672;51.612;5.536;2023-05-07T09:29:20;101500.00;;;20.75;79.85
59787;BME280;45672;51.612;5.536;2023-05-07T09:31:46;101496.66;;;20.80;79.16
59787;BME280;45672;51.612;5.536;2023-05-07T09:34:11;101502.91;;;20.87;78.74
59787;BME280;45672;51.612;5.536;2023-05-07T09:36:36;101503.31;;;20.77;79.39
59787;BME280;45672;51.612;5.536;2023-05-07T09:39:02;101502.06;;;20.80;80.01
59787;BME280;45672;51.612;5.536;2023-05-07T09:41:30;101502.03;;;20.60;79.44
59787;BME280;45672;51.612;5.536;2023-05-07T09:43:56;101501.78;;;20.48;80.91
59787;BME280;45672;51.612;5.536;2023-05-07T09:46:27;101490.97;;;20.48;81.89
59787;BME280;45672;51.612;5.536;2023-05-07T09:48:57;101512.19;;;20.58;80.59
59787;BME280;45672;51.612;5.536;2023-05-07T09:51:30;101503.47;;;20.56;81.02
59787;BME280;45672;51.612;5.536;2023-05-07T09:53:57;101505.78;;;20.65;81.38
59787;BME280;45672;51.612;5.536;2023-05-07T09:56:25;101498.31;;;20.74;82.17
59787;BME280;45672;51.612;5.536;2023-05-07T09:58:54;101496.41;;;20.61;80.97
59787;BME280;45672;51.612;5.536;2023-05-07T10:01:19;101508.31;;;20.67;81.29
59787;BME280;45672;51.612;5.536;2023-05-07T10:03:48;101502.63;;;20.55;80.46
59787;BME280;45672;51.612;5.536;2023-05-07T10:06:15;101501.59;;;20.63;82.37
59787;BME280;45672;51.612;5.536;2023-05-07T10:08:42;101501.84;;;20.95;82.01
59787;BME280;45672;51.612;5.536;2023-05-07T10:11:09;101500.19;;;21.21;80.54
59787;BME280;45672;51.612;5.536;2023-05-07T10:13:34;101505.59;;;21.41;80.06
59787;BME280;45672;51.612;5.536;2023-05-07T10:16:06;101506.19;;;21.63;76.96
59787;BME280;45672;51.612;5.536;2023-05-07T10:18:32;101502.03;;;21.54;75.41
59787;BME280;45672;51.612;5.536;2023-05-07T10:21:12;101507.03;;;21.57;76.37
59787;BME280;45672;51.612;5.536;2023-05-07T10:23:44;101507.41;;;21.74;77.01
59787;BME280;45672;51.612;5.536;2023-05-07T10:26:10;101507.69;;;22.04;75.56
59787;BME280;45672;51.612;5.536;2023-05-07T10:28:39;101516.34;;;22.26;70.24
59787;BME280;45672;51.612;5.536;2023-05-07T10:31:40;101511.88;;;22.45;72.97
59787;BME280;45672;51.612;5.536;2023-05-07T10:34:11;101514.16;;;22.48;71.42
59787;BME280;45672;51.612;5.536;2023-05-07T10:36:37;101508.28;;;22.51;70.41
59787;BME280;45672;51.612;5.536;2023-05-07T10:39:05;101508.59;;;22.68;69.72
59787;BME280;45672;51.612;5.536;2023-05-07T10:41:31;101514.31;;;22.85;70.62
59787;BME280;45672;51.612;5.536;2023-05-07T10:43:57;101516.03;;;22.80;69.98
59787;BME280;45672;51.612;5.536;2023-05-07T10:46:22;101509.88;;;22.66;68.37
59787;BME280;45672;51.612;5.536;2023-05-07T10:51:26;101510.31;;;22.24;70.11
59787;BME280;45672;51.612;5.536;2023-05-07T10:56:35;101516.56;;;22.25;68.82
59787;BME280;45672;51.612;5.536;2023-05-07T11:01:56;101517.19;;;22.27;71.55
59787;BME280;45672;51.612;5.536;2023-05-07T11:04:22;101504.84;;;22.37;69.07
59787;BME280;45672;51.612;5.536;2023-05-07T11:07:28;101506.22;;;22.53;71.29
59787;BME280;45672;51.612;5.536;2023-05-07T11:15:03;101504.66;;;23.21;64.09
59787;BME280;45672;51.612;5.536;2023-05-07T11:17:29;101517.28;;;23.34;62.10
59787;BME280;45672;51.612;5.536;2023-05-07T11:19:57;101515.53;;;23.21;62.68
59787;BME280;45672;51.612;5.536;2023-05-07T11:24:59;101506.75;;;23.19;63.21
59787;BME280;45672;51.612;5.536;2023-05-07T11:27:25;101510.81;;;23.35;63.86
59787;BME280;45672;51.612;5.536;2023-05-07T11:29:51;101517.53;;;23.51;62.71
59787;BME280;45672;51.612;5.536;2023-05-07T11:32:24;101517.59;;;23.45;62.78
59787;BME280;45672;51.612;5.536;2023-05-07T11:34:54;101524.28;;;23.42;62.16
59787;BME280;45672;51.612;5.536;2023-05-07T11:37:20;101525.25;;;23.29;61.51
59787;BME280;45672;51.612;5.536;2023-05-07T11:39:46;101523.44;;;23.23;61.90
59787;BME280;45672;51.612;5.536;2023-05-07T11:42:35;101516.88;;;23.31;64.32
59787;BME280;45672;51.612;5.536;2023-05-07T11:45:01;101520.59;;;23.55;61.50
59787;BME280;45672;51.612;5.536;2023-05-07T11:47:30;101514.19;;;23.86;61.10
59787;BME280;45672;51.612;5.536;2023-05-07T11:49:55;101520.41;;;24.12;59.81
59787;BME280;45672;51.612;5.536;2023-05-07T11:52:23;101516.75;;;24.18;59.49
59787;BME280;45672;51.612;5.536;2023-05-07T11:54:49;101517.50;;;24.25;57.85
59787;BME280;45672;51.612;5.536;2023-05-07T11:57:15;101517.06;;;24.10;55.98
59787;BME280;45672;51.612;5.536;2023-05-07T11:59:40;101521.81;;;23.78;58.72
59787;BME280;45672;51.612;5.536;2023-05-07T12:02:07;101527.03;;;23.61;57.51
59787;BME280;45672;51.612;5.536;2023-05-07T12:04:32;101515.09;;;23.43;58.76
59787;BME280;45672;51.612;5.536;2023-05-07T12:06:57;101517.81;;;23.62;59.09
59787;BME280;45672;51.612;5.536;2023-05-07T12:09:23;101513.91;;;23.76;57.96
59787;BME280;45672;51.612;5.536;2023-05-07T12:11:48;101519.03;;;23.66;56.27
59787;BME280;45672;51.612;5.536;2023-05-07T12:14:14;101516.84;;;23.56;56.15
59787;BME280;45672;51.612;5.536;2023-05-07T12:16:41;101524.91;;;23.44;55.65
59787;BME280;45672;51.612;5.536;2023-05-07T12:19:07;101519.25;;;23.46;56.58
59787;BME280;45672;51.612;5.536;2023-05-07T12:21:34;101521.09;;;23.27;56.45
59787;BME280;45672;51.612;5.536;2023-05-07T12:24:00;101517.53;;;23.01;57.60
59787;BME280;45672;51.612;5.536;2023-05-07T12:26:26;101505.09;;;22.93;59.65
59787;BME280;45672;51.612;5.536;2023-05-07T12:28:51;101508.91;;;23.11;58.99
59787;BME280;45672;51.612;5.536;2023-05-07T12:31:17;101524.13;;;23.18;59.22
59787;BME280;45672;51.612;5.536;2023-05-07T12:33:42;101519.75;;;23.11;58.19
59787;BME280;45672;51.612;5.536;2023-05-07T12:36:08;101535.50;;;23.02;58.24
59787;BME280;45672;51.612;5.536;2023-05-07T12:38:40;101524.31;;;22.92;58.79
59787;BME280;45672;51.612;5.536;2023-05-07T12:41:09;101520.91;;;22.71;58.79
59787;BME280;45672;51.612;5.536;2023-05-07T12:43:35;101522.66;;;22.59;59.54
59787;BME280;45672;51.612;5.536;2023-05-07T12:46:04;101536.25;;;22.52;59.22
59787;BME280;45672;51.612;5.536;2023-05-07T12:48:29;101534.03;;;22.35;58.56
59787;BME280;45672;51.612;5.536;2023-05-07T12:50:56;101544.50;;;22.25;60.71
59787;BME280;45672;51.612;5.536;2023-05-07T12:53:24;101540.63;;;22.08;61.93